createdAt,value
2023-02-03T00:00:31.949Z,99761.21
2023-02-03T00:03:00.198Z,99764.34
2023-02-03T00:05:28.635Z,99766.82
2023-02-03T00:07:57.060Z,99764.23
2023-02-03T00:10:25.720Z,99769.31
2023-02-03T00:12:54.367Z,99766.57
2023-02-03T00:15:23.426Z,99767.63
2023-02-03T00:17:51.853Z,99769.00
2023-02-03T00:20:19.920Z,99772.96
2023-02-03T00:22:48.197Z,99771.04
2023-02-03T00:25:16.219Z,99771.02
2023-02-03T00:27:44.647Z,99771.00
2023-02-03T00:30:13.033Z,99774.27
2023-02-03T00:32:41.393Z,99773.19
2023-02-03T00:35:09.359Z,99770.92
2023-02-03T00:37:38.370Z,99771.83
2023-02-03T00:40:06.630Z,99772.86
2023-02-03T00:42:35.931Z,99771.27
2023-02-03T00:45:04.196Z,99768.48
2023-02-03T00:47:32.415Z,99769.52
2023-02-03T00:50:00.734Z,99769.18
2023-02-03T00:52:29.581Z,99773.34
2023-02-03T00:54:57.629Z,99776.36
2023-02-03T00:57:25.743Z,99778.74
2023-02-03T00:59:54.925Z,99779.66
2023-02-03T01:02:22.963Z,99779.86
2023-02-03T01:04:52.161Z,99778.30
2023-02-03T01:07:20.351Z,99778.46
2023-02-03T01:09:50.195Z,99782.31
2023-02-03T01:12:18.283Z,99775.60
2023-02-03T01:14:46.507Z,99774.23
2023-02-03T01:17:14.556Z,99775.13
2023-02-03T01:19:42.751Z,99779.68
2023-02-03T01:22:11.026Z,99778.52
2023-02-03T01:24:38.998Z,99776.47
2023-02-03T01:27:07.418Z,99772.68
2023-02-03T01:29:35.843Z,99772.02
2023-02-03T01:32:04.631Z,99771.48
2023-02-03T01:34:32.954Z,99771.73
2023-02-03T01:37:00.972Z,99775.34
2023-02-03T01:39:30.218Z,99773.35
2023-02-03T01:41:58.908Z,99772.48
2023-02-03T01:44:47.839Z,99770.48
2023-02-03T01:47:21.507Z,99769.96
2023-02-03T01:50:01.580Z,99768.05
2023-02-03T01:52:30.166Z,99768.40
2023-02-03T01:54:58.891Z,99771.11
2023-02-03T01:57:35.104Z,99774.36
2023-02-03T02:00:05.034Z,99774.90
2023-02-03T02:02:43.146Z,99773.23
2023-02-03T02:05:34.455Z,99773.41
2023-02-03T02:08:03.483Z,99777.35
2023-02-03T02:10:31.691Z,99776.93
2023-02-03T02:13:02.355Z,99778.27
2023-02-03T02:15:43.677Z,99774.13
2023-02-03T02:18:24.210Z,99771.77
2023-02-03T02:20:55.358Z,99771.73
2023-02-03T02:23:32.668Z,99771.70
2023-02-03T02:26:22.481Z,99773.45
2023-02-03T02:29:16.529Z,99779.37
2023-02-03T02:31:56.602Z,99779.00
2023-02-03T02:34:37.454Z,99782.40
2023-02-03T02:37:05.604Z,99786.16
2023-02-03T02:39:56.263Z,99786.20
2023-02-03T02:42:41.743Z,99784.52
2023-02-03T02:45:19.946Z,99785.08
2023-02-03T02:47:48.894Z,99785.06
2023-02-03T02:50:23.601Z,99789.73
2023-02-03T02:52:52.216Z,99785.69
2023-02-03T02:55:30.790Z,99785.52
2023-02-03T02:58:04.066Z,99788.13
2023-02-03T03:00:32.485Z,99785.87
2023-02-03T03:03:15.947Z,99784.64
2023-02-03T03:05:48.497Z,99786.04
2023-02-03T03:08:17.060Z,99784.33
2023-02-03T03:10:45.056Z,99780.90
2023-02-03T03:13:17.517Z,99778.31
2023-02-03T03:15:47.302Z,99774.90
2023-02-03T03:18:25.662Z,99773.95
2023-02-03T03:20:56.077Z,99774.98
2023-02-03T03:23:27.897Z,99771.12
2023-02-03T03:26:10.759Z,99773.66
2023-02-03T03:28:49.973Z,99773.25
2023-02-03T03:31:18.718Z,99776.34
2023-02-03T03:33:47.149Z,99773.90
2023-02-03T03:36:26.023Z,99772.34
2023-02-03T03:38:57.208Z,99771.79
2023-02-03T03:41:30.170Z,99776.09
2023-02-03T03:44:00.320Z,99775.44
2023-02-03T03:46:30.328Z,99776.31
2023-02-03T03:49:03.435Z,99780.21
2023-02-03T03:51:47.117Z,99782.81
2023-02-03T03:54:16.683Z,99780.38
2023-02-03T03:57:23.766Z,99784.90
2023-02-03T03:59:52.158Z,99788.81
2023-02-03T04:02:20.604Z,99787.87
2023-02-03T04:04:49.533Z,99789.29
2023-02-03T04:07:18.375Z,99789.66
2023-02-03T04:09:46.590Z,99790.02
2023-02-03T04:12:24.279Z,99790.54
2023-02-03T04:14:52.979Z,99790.52
2023-02-03T04:17:21.494Z,99794.29
2023-02-03T04:19:49.482Z,99800.17
2023-02-03T04:22:17.427Z,99798.80
2023-02-03T04:24:45.390Z,99800.16
2023-02-03T04:27:14.174Z,99800.43
2023-02-03T04:29:42.145Z,99809.08
2023-02-03T04:32:10.347Z,99809.34
2023-02-03T04:34:38.830Z,99809.64
2023-02-03T04:37:06.935Z,99810.42
2023-02-03T04:39:35.934Z,99815.48
2023-02-03T04:42:04.076Z,99813.34
2023-02-03T04:44:32.953Z,99812.80
2023-02-03T04:47:01.112Z,99812.65
2023-02-03T04:49:29.809Z,99813.70
2023-02-03T04:51:57.812Z,99815.27
2023-02-03T04:54:25.920Z,99813.88
2023-02-03T04:56:55.475Z,99816.39
2023-02-03T04:59:23.732Z,99820.82
2023-02-03T05:01:51.730Z,99820.86
2023-02-03T05:04:19.765Z,99821.36
2023-02-03T05:06:48.871Z,99825.02
2023-02-03T05:09:17.267Z,99822.23
2023-02-03T05:11:48.085Z,99827.07
2023-02-03T05:14:16.528Z,99829.48
2023-02-03T05:16:46.319Z,99829.37
2023-02-03T05:19:14.809Z,99831.77
2023-02-03T05:21:43.098Z,99838.16
2023-02-03T05:24:11.711Z,99843.54
2023-02-03T05:26:42.187Z,99846.84
2023-02-03T05:29:11.979Z,99848.40
2023-02-03T05:31:40.724Z,99846.84
2023-02-03T05:34:08.990Z,99850.01
2023-02-03T05:36:37.174Z,99849.73
2023-02-03T05:46:45.078Z,99840.61
2023-02-03T05:49:14.392Z,99841.46
2023-02-03T05:51:43.042Z,99841.56
2023-02-03T05:54:11.607Z,99842.38
2023-02-03T05:56:40.754Z,99848.59
2023-02-03T05:59:09.000Z,99851.55
2023-02-03T06:01:37.826Z,99850.30
2023-02-03T08:15:44.835Z,99882.25
2023-02-03T08:18:12.040Z,99878.90
2023-02-03T08:20:38.734Z,99878.63
2023-02-03T08:23:06.915Z,99876.98
2023-02-03T08:25:34.511Z,99876.80
2023-02-03T08:28:02.907Z,99881.36
2023-02-03T08:30:30.540Z,99879.39
2023-02-03T08:32:57.957Z,99878.21
2023-02-03T08:35:25.356Z,99873.73
2023-02-03T08:37:52.239Z,99871.58
2023-02-03T08:40:19.133Z,99870.98
2023-02-03T08:42:46.936Z,99874.45
2023-02-03T08:45:13.594Z,99876.92
2023-02-03T08:47:43.727Z,99876.21
2023-02-03T08:50:10.839Z,99878.48
2023-02-03T08:52:37.532Z,99878.07
2023-02-03T08:55:04.735Z,99871.50
2023-02-03T08:57:35.430Z,99863.13
2023-02-03T09:00:05.947Z,99861.23
2023-02-03T09:02:32.763Z,99859.20
2023-02-03T09:05:00.042Z,99858.22
2023-02-03T09:07:30.914Z,99853.95
2023-02-03T09:09:57.899Z,99850.02
2023-02-03T09:12:24.766Z,99847.36
2023-02-03T09:14:51.512Z,99848.48
2023-02-03T09:17:18.236Z,99847.55
2023-02-03T09:19:44.975Z,99846.98
2023-02-03T09:22:12.861Z,99845.27
2023-02-03T09:24:40.030Z,99845.31
2023-02-03T09:27:06.795Z,99847.16
2023-02-03T09:29:34.052Z,99849.36
2023-02-03T09:32:06.421Z,99849.67
2023-02-03T09:34:33.292Z,99852.88
2023-02-03T09:37:00.751Z,99850.27
2023-02-03T09:39:27.446Z,99848.66
2023-02-03T09:42:36.492Z,99844.48
2023-02-03T09:45:12.202Z,99849.41
2023-02-03T09:47:40.652Z,99847.06
2023-02-03T09:50:13.263Z,99850.04
2023-02-03T09:52:40.387Z,99850.43
2023-02-03T09:55:16.536Z,99850.55
2023-02-03T09:57:56.346Z,99850.15
2023-02-03T10:00:41.527Z,99849.82
2023-02-03T10:03:24.684Z,99846.09
2023-02-03T10:06:07.894Z,99842.25
2023-02-03T10:09:23.894Z,99841.20
2023-02-03T10:11:57.359Z,99841.91
2023-02-03T10:14:46.244Z,99846.25
2023-02-03T10:17:28.631Z,99847.84
2023-02-03T10:20:20.981Z,99843.52
2023-02-03T10:22:50.350Z,99840.08
2023-02-03T10:25:24.349Z,99839.98
2023-02-03T10:27:52.878Z,99837.20
2023-02-03T10:30:24.838Z,99839.02
2023-02-03T10:32:57.090Z,99838.41
2023-02-03T10:35:27.988Z,99837.73
2023-02-03T10:37:56.991Z,99836.03
2023-02-03T10:40:24.268Z,99833.92
2023-02-03T10:43:20.936Z,99834.63
2023-02-03T10:45:47.698Z,99833.86
2023-02-03T10:48:16.374Z,99833.31
2023-02-03T10:50:45.907Z,99832.73
2023-02-03T10:53:35.741Z,99831.36
2023-02-03T10:56:10.928Z,99831.33
2023-02-03T10:58:38.435Z,99829.48
2023-02-03T11:01:15.901Z,99826.39
2023-02-03T11:04:00.203Z,99823.07
2023-02-03T11:06:31.322Z,99819.14
2023-02-03T11:08:59.893Z,99823.35
2023-02-03T11:11:32.436Z,99819.39
2023-02-03T11:14:03.663Z,99815.98
2023-02-03T11:16:33.618Z,99812.91
2023-02-03T11:19:04.038Z,99806.75
2023-02-03T11:21:37.039Z,99802.83
2023-02-03T11:24:21.885Z,99800.27
2023-02-03T11:27:06.170Z,99802.17
2023-02-03T11:29:36.126Z,99799.36
2023-02-03T11:32:06.471Z,99799.07
2023-02-03T11:34:42.309Z,99797.14
2023-02-03T11:37:29.149Z,99798.48
2023-02-03T11:40:06.138Z,99795.58
2023-02-03T11:42:37.633Z,99797.03
2023-02-03T11:45:29.134Z,99796.06
2023-02-03T11:47:58.844Z,99791.66
2023-02-03T11:50:29.040Z,99791.73
2023-02-03T11:53:31.805Z,99787.98
2023-02-03T11:56:17.787Z,99789.02
2023-02-03T11:58:58.114Z,99784.65
2023-02-03T12:01:59.385Z,99782.44
2023-02-03T12:04:55.936Z,99783.81
2023-02-03T12:07:56.928Z,99781.48
2023-02-03T12:11:04.451Z,99787.64
2023-02-03T12:13:49.773Z,99787.02
2023-02-03T12:16:20.893Z,99797.05
2023-02-03T12:19:18.982Z,99796.69
2023-02-03T12:21:50.841Z,99797.41
2023-02-03T12:24:27.006Z,99799.79
2023-02-03T12:27:14.055Z,99802.81
2023-02-03T12:29:43.421Z,99804.65
2023-02-03T12:32:25.724Z,99801.83
2023-02-03T12:34:52.527Z,99802.91
2023-02-03T12:37:23.548Z,99805.94
2023-02-03T12:40:15.498Z,99805.16
2023-02-03T12:42:51.565Z,99807.86
2023-02-03T12:45:26.197Z,99806.31
2023-02-03T12:48:00.670Z,99808.78
2023-02-03T12:50:40.247Z,99811.09
2023-02-03T12:53:14.318Z,99820.05
2023-02-03T12:55:55.361Z,99819.81
2023-02-03T12:58:25.399Z,99823.34
2023-02-03T13:01:06.402Z,99821.27
2023-02-03T13:03:35.555Z,99814.49
2023-02-03T13:06:15.427Z,99815.52
2023-02-03T13:08:45.456Z,99820.48
2023-02-03T13:11:34.527Z,99821.33
2023-02-03T13:14:05.307Z,99823.77
2023-02-03T13:16:34.805Z,99828.20
2023-02-03T13:19:22.493Z,99828.79
2023-02-03T13:21:49.538Z,99830.81
2023-02-03T13:24:16.693Z,99829.46
2023-02-03T13:27:08.658Z,99830.91
2023-02-03T13:29:49.333Z,99827.80
2023-02-03T13:32:23.506Z,99824.70
2023-02-03T13:34:53.858Z,99826.73
2023-02-03T13:37:33.040Z,99830.05
2023-02-03T13:40:02.833Z,99825.05
2023-02-03T13:42:33.086Z,99827.97
2023-02-03T13:45:11.225Z,99828.03
2023-02-03T13:47:38.283Z,99829.90
2023-02-03T13:50:08.196Z,99827.23
2023-02-03T13:52:38.844Z,99829.91
2023-02-03T13:55:05.636Z,99832.06
2023-02-03T13:57:40.596Z,99832.73
2023-02-03T14:00:42.882Z,99835.02
2023-02-03T14:03:39.587Z,99833.73
2023-02-03T14:06:30.055Z,99834.18
2023-02-03T14:09:00.430Z,99838.23
2023-02-03T14:11:37.399Z,99840.29
2023-02-03T14:14:07.446Z,99837.02
2023-02-03T14:16:40.833Z,99836.83
2023-02-03T14:19:11.679Z,99837.02
2023-02-03T14:21:54.739Z,99839.09
2023-02-03T14:24:21.571Z,99839.84
2023-02-03T14:26:52.253Z,99838.17
2023-02-03T14:29:29.443Z,99841.02
2023-02-03T14:32:05.891Z,99844.31
2023-02-03T14:34:38.610Z,99838.42
2023-02-03T14:37:23.664Z,99842.09
2023-02-03T14:40:13.665Z,99836.23
2023-02-03T14:43:10.237Z,99834.39
2023-02-03T14:45:57.427Z,99835.02
2023-02-03T14:48:28.560Z,99832.29
2023-02-03T14:51:17.696Z,99833.50
2023-02-03T14:53:46.259Z,99834.54
2023-02-03T14:56:22.349Z,99836.09
2023-02-03T14:59:00.769Z,99838.11
2023-02-03T15:01:36.971Z,99837.01
2023-02-03T15:04:14.877Z,99837.48
2023-02-03T15:06:43.400Z,99835.45
2023-02-03T15:09:39.870Z,99835.42
2023-02-03T15:12:34.547Z,99841.29
2023-02-03T15:15:14.951Z,99840.98
2023-02-03T15:17:42.099Z,99842.48
2023-02-03T15:20:38.199Z,99842.80
2023-02-03T15:23:23.701Z,99846.46
2023-02-03T15:25:54.777Z,99847.58
2023-02-03T15:28:22.166Z,99847.40
2023-02-03T15:30:52.102Z,99846.32
2023-02-03T15:33:21.492Z,99848.21
2023-02-03T15:36:01.226Z,99847.01
2023-02-03T15:38:49.599Z,99846.86
2023-02-03T15:41:25.702Z,99851.54
2023-02-03T15:43:56.063Z,99850.67
2023-02-03T15:46:27.250Z,99850.83
2023-02-03T15:49:17.750Z,99852.77
2023-02-03T15:51:53.684Z,99852.08
2023-02-03T15:54:29.846Z,99852.30
2023-02-03T15:57:01.786Z,99855.61
2023-02-03T15:59:34.303Z,99853.08
2023-02-03T16:02:06.287Z,99853.77
2023-02-03T16:04:33.303Z,99852.00
2023-02-03T16:06:59.985Z,99850.04
2023-02-03T16:09:29.194Z,99855.02
2023-02-03T16:12:05.709Z,99854.11
2023-02-03T16:14:34.733Z,99854.52
2023-02-03T16:17:05.870Z,99856.81
2023-02-03T16:19:37.449Z,99859.33
2023-02-03T16:22:04.106Z,99859.61
2023-02-03T16:24:45.613Z,99862.97
2023-02-03T16:27:30.736Z,99861.06
2023-02-03T16:30:25.735Z,99863.23
2023-02-03T16:33:27.424Z,99865.05
2023-02-03T16:36:14.206Z,99860.62
2023-02-03T16:39:05.792Z,99861.02
2023-02-03T16:41:52.202Z,99858.40
2023-02-03T16:44:37.597Z,99854.77
2023-02-03T16:47:45.827Z,99852.74
2023-02-03T16:50:49.837Z,99851.02
2023-02-03T16:53:28.527Z,99851.92
2023-02-03T16:55:58.980Z,99853.14
2023-02-03T16:58:25.991Z,99852.95
2023-02-03T17:00:55.463Z,99850.20
2023-02-03T17:03:23.826Z,99850.41
2023-02-03T17:05:51.230Z,99847.63
2023-02-03T17:08:19.650Z,99843.36
2023-02-03T17:10:47.532Z,99843.99
2023-02-03T17:13:15.198Z,99843.16
2023-02-03T17:15:43.586Z,99840.70
2023-02-03T17:18:11.183Z,99839.60
2023-02-03T17:20:39.504Z,99839.70
2023-02-03T17:23:06.908Z,99840.96
2023-02-03T17:25:45.398Z,99840.75
2023-02-03T17:28:14.363Z,99843.13
2023-02-03T17:30:43.686Z,99844.89
2023-02-03T17:33:12.967Z,99848.82
2023-02-03T17:35:41.049Z,99848.68
2023-02-03T17:38:09.064Z,99849.71
2023-02-03T17:54:38.956Z,99848.08
2023-02-03T17:57:05.575Z,99850.67
2023-02-03T17:59:34.430Z,99851.87
2023-02-03T18:02:01.316Z,99854.81
2023-02-03T18:04:29.829Z,99855.27
2023-02-03T18:06:58.744Z,99849.69
2023-02-03T18:09:26.818Z,99850.35
2023-02-03T18:11:54.403Z,99850.83
2023-02-03T18:14:21.304Z,99850.27
2023-02-03T18:16:48.731Z,99851.23
2023-02-03T18:19:16.654Z,99852.38
2023-02-03T18:21:44.498Z,99852.69
2023-02-03T18:24:12.435Z,99853.26
2023-02-03T18:26:50.359Z,99852.10
2023-02-03T18:29:17.636Z,99852.84
2023-02-03T18:31:45.004Z,99846.89
2023-02-03T18:34:12.349Z,99846.21
2023-02-03T18:39:07.584Z,99840.15
2023-02-03T18:41:36.187Z,99837.77
2023-02-03T18:44:03.030Z,99836.58
2023-02-03T18:46:30.801Z,99839.69
2023-02-03T18:48:58.003Z,99836.66
2023-02-03T18:51:25.418Z,99831.70
2023-02-03T18:53:56.462Z,99825.75
2023-02-03T18:56:25.196Z,99821.80
2023-02-03T18:58:52.194Z,99819.54
2023-02-03T19:01:22.346Z,99821.29
2023-02-03T19:03:52.022Z,99823.62
2023-02-03T19:06:18.931Z,99825.13
2023-02-03T19:08:45.683Z,99828.56
2023-02-03T19:11:14.588Z,99828.51
2023-02-03T19:13:42.366Z,99830.80
2023-02-03T19:16:11.169Z,99833.05
2023-02-03T19:18:38.671Z,99827.20
2023-02-03T19:21:05.550Z,99829.85
2023-02-03T19:23:32.918Z,99833.41
2023-02-03T19:26:00.240Z,99832.23
2023-02-03T19:28:30.898Z,99831.58
2023-02-03T19:31:07.876Z,99831.74
2023-02-03T19:33:36.373Z,99829.65
2023-02-03T19:36:04.711Z,99828.05
2023-02-03T19:38:32.301Z,99827.48
2023-02-03T19:41:01.143Z,99827.03
2023-02-03T19:43:31.957Z,99826.09
2023-02-03T19:45:59.027Z,99825.11
2023-02-03T19:48:26.675Z,99822.58
2023-02-03T19:50:54.068Z,99823.01
2023-02-03T19:53:23.570Z,99820.65
2023-02-03T19:55:50.647Z,99821.38
2023-02-03T19:58:17.461Z,99823.33
2023-02-03T20:00:44.500Z,99823.45
2023-02-03T20:03:11.793Z,99820.87
2023-02-03T20:05:38.687Z,99818.06
2023-02-03T20:08:05.952Z,99821.30
2023-02-03T20:10:33.256Z,99825.16
2023-02-03T20:13:00.603Z,99824.70
2023-02-03T20:15:27.393Z,99821.14
2023-02-03T20:17:54.745Z,99817.08
2023-02-03T20:20:21.662Z,99814.77
2023-02-03T20:22:48.452Z,99811.52
2023-02-03T20:25:16.223Z,99811.53
2023-02-03T20:27:43.182Z,99813.80
2023-02-03T20:30:11.041Z,99819.70
2023-02-03T20:32:37.855Z,99818.13
2023-02-03T20:35:06.002Z,99809.84
2023-02-03T20:37:35.623Z,99812.09
2023-02-03T20:40:05.805Z,99815.98
2023-02-03T20:42:32.698Z,99818.47
2023-02-03T20:45:00.083Z,99818.57
2023-02-03T20:47:27.316Z,99819.30
2023-02-03T20:49:55.223Z,99820.02
2023-02-03T20:52:21.992Z,99817.95
2023-02-03T20:54:49.026Z,99820.61
2023-02-03T20:57:17.560Z,99823.63
2023-02-03T20:59:45.299Z,99825.59
2023-02-03T21:02:50.653Z,99823.91
2023-02-03T21:05:25.607Z,99825.52
2023-02-03T21:07:55.610Z,99828.34
2023-02-03T21:10:23.204Z,99829.31
2023-02-03T21:12:50.817Z,99830.59
2023-02-03T21:15:28.785Z,99835.13
2023-02-03T21:17:55.914Z,99836.36
2023-02-03T21:20:30.588Z,99840.52
2023-02-03T21:23:02.212Z,99839.72
2023-02-03T21:25:33.032Z,99843.19
2023-02-03T21:28:00.601Z,99846.18
2023-02-03T21:30:33.710Z,99845.39
2023-02-03T21:33:13.242Z,99847.17
2023-02-03T21:35:39.977Z,99847.86
2023-02-03T21:38:28.796Z,99849.98
2023-02-03T21:40:56.361Z,99853.84
2023-02-03T21:43:24.150Z,99855.73
2023-02-03T21:45:50.878Z,99851.21
2023-02-03T21:48:51.172Z,99846.96
2023-02-03T21:51:20.281Z,99848.86
2023-02-03T21:53:56.664Z,99846.71
2023-02-03T21:56:42.390Z,99847.35
2023-02-03T21:59:25.611Z,99847.61
2023-02-03T22:01:53.155Z,99847.66
2023-02-03T22:04:19.859Z,99847.17
2023-02-03T22:06:49.854Z,99842.40
2023-02-03T22:09:17.822Z,99842.12
2023-02-03T22:12:04.893Z,99842.67
2023-02-03T22:14:34.027Z,99845.17
2023-02-03T22:17:01.766Z,99843.91
2023-02-03T22:19:31.667Z,99844.67
2023-02-03T22:21:58.578Z,99842.14
2023-02-03T22:24:25.250Z,99841.83
2023-02-03T22:26:54.294Z,99841.02
2023-02-03T22:29:22.491Z,99840.09
2023-02-03T22:31:49.586Z,99838.15
2023-02-03T22:34:18.411Z,99837.86
2023-02-03T22:36:45.003Z,99836.86
2023-02-03T22:39:12.777Z,99833.09
2023-02-03T22:41:39.612Z,99830.46
2023-02-03T22:44:06.320Z,99829.39
2023-02-03T22:46:32.979Z,99827.65
2023-02-03T22:48:59.698Z,99828.80
2023-02-03T22:51:26.477Z,99826.87
2023-02-03T22:53:53.326Z,99828.95
2023-02-03T22:56:21.191Z,99828.97
2023-02-03T22:58:48.957Z,99827.23
2023-02-03T23:01:15.826Z,99830.21
2023-02-03T23:03:42.569Z,99826.52
2023-02-03T23:06:09.636Z,99821.48
2023-02-03T23:08:36.594Z,99815.19
2023-02-03T23:11:03.405Z,99812.80
2023-02-03T23:13:32.921Z,99814.36
2023-02-03T23:16:00.297Z,99813.73
2023-02-03T23:18:27.474Z,99816.55
2023-02-03T23:20:54.918Z,99817.33
2023-02-03T23:23:21.976Z,99818.77
2023-02-03T23:25:49.160Z,99815.84
2023-02-03T23:28:16.032Z,99817.73
2023-02-03T23:30:43.058Z,99818.30
2023-02-03T23:33:10.128Z,99819.89
2023-02-03T23:35:48.484Z,99822.02
2023-02-03T23:38:15.892Z,99822.95
2023-02-03T23:40:43.401Z,99828.92
2023-02-03T23:43:10.421Z,99825.77
2023-02-03T23:45:37.480Z,99824.55
2023-02-03T23:48:04.734Z,99827.88
2023-02-03T23:50:31.965Z,99829.29
2023-02-03T23:52:59.176Z,99824.89
2023-02-03T23:55:26.057Z,99824.91
2023-02-03T23:57:53.245Z,99821.80
